Time;durP1;ratioP1;P1;durP2;ratioP2;P2;SDS_P1;SDS_P2;PMS_P1;PMS_P2;Temp;Humidity;BMP_temperature;BMP_pressure;BME280_temperature;BME280_humidity;BME280_pressure;Samples;Min_cycle;Max_cycle;Signal;HPM_P1;HPM_P2
2021/01/15 00:01:02;;;;;;;29.27;26.20;;;19.40;35.60;;;;;;5092424;28;20060;-50
2021/01/15 00:03:31;;;;;;;27.80;24.42;;;19.30;35.60;;;;;;5092705;28;20078;-51
2021/01/15 00:05:57;;;;;;;30.58;25.88;;;19.30;35.70;;;;;;5092829;28;20058;-51
2021/01/15 00:08:23;;;;;;;27.73;24.77;;;19.30;35.70;;;;;;5092816;28;20545;-51
2021/01/15 00:10:49;;;;;;;28.45;24.52;;;19.30;35.80;;;;;;5092513;28;20043;-51
2021/01/15 00:13:15;;;;;;;27.80;24.80;;;19.30;35.90;;;;;;5091302;28;20032;-51
2021/01/15 00:15:41;;;;;;;27.33;24.50;;;19.30;35.90;;;;;;5089467;28;20060;-51
2021/01/15 00:18:07;;;;;;;25.90;23.02;;;19.30;36.00;;;;;;5092626;28;20021;-51
2021/01/15 00:20:33;;;;;;;26.88;23.15;;;19.30;36.00;;;;;;5092478;28;20035;-51
2021/01/15 00:22:59;;;;;;;26.30;23.50;;;19.30;36.00;;;;;;5092408;28;20382;-51
2021/01/15 00:25:25;;;;;;;26.85;21.85;;;19.30;36.10;;;;;;5092607;28;20358;-51
2021/01/15 00:27:50;;;;;;;25.63;22.23;;;19.30;36.10;;;;;;5091620;28;20545;-51
2021/01/15 00:30:17;;;;;;;25.65;22.38;;;19.30;36.10;;;;;;5092951;28;20434;-52
2021/01/15 00:32:43;;;;;;;23.77;20.95;;;19.20;36.10;;;;;;5093614;28;20082;-51
2021/01/15 00:35:09;;;;;;;23.52;21.02;;;19.20;36.10;;;;;;5096188;28;20028;-51
2021/01/15 00:37:38;;;;;;;26.33;23.15;;;19.20;36.10;;;;;;5096358;28;20111;-51
2021/01/15 00:40:05;;;;;;;28.40;25.17;;;19.20;36.20;;;;;;5096221;28;20024;-51
2021/01/15 00:42:34;;;;;;;26.85;24.00;;;19.20;36.30;;;;;;5096421;28;20090;-51
2021/01/15 00:45:00;;;;;;;26.23;22.98;;;19.20;36.30;;;;;;5095048;28;20129;-51
2021/01/15 00:47:31;;;;;;;23.75;21.08;;;19.20;36.20;;;;;;5077927;28;20035;-50
2021/01/15 00:49:57;;;;;;;;;;;19.20;36.10;;;;;;5095444;28;20034;-49
2021/01/15 00:52:23;;;;;;;21.67;18.70;;;19.10;35.80;;;;;;5094716;28;20323;-49
2021/01/15 00:54:49;;;;;;;20.17;16.88;;;19.20;35.80;;;;;;5096072;28;20043;-49
2021/01/15 00:57:15;;;;;;;19.13;16.65;;;19.20;35.80;;;;;;5095984;28;20028;-50
2021/01/15 00:59:42;;;;;;;18.73;15.10;;;19.10;35.80;;;;;;5094478;28;20063;-50
2021/01/15 01:02:43;;;;;;;20.38;15.90;;;19.10;35.80;;;;;;5084410;28;20032;-50
2021/01/15 01:05:11;;;;;;;19.52;14.93;;;19.10;35.80;;;;;;5095811;28;20032;-50
2021/01/15 01:07:43;;;;;;;14.77;12.73;;;19.10;35.80;;;;;;5095833;28;20024;-50
2021/01/15 01:10:11;;;;;;;14.02;12.52;;;19.00;35.70;;;;;;5095621;28;20039;-50
2021/01/15 01:12:41;;;;;;;15.77;12.68;;;19.00;35.80;;;;;;5095680;28;20080;-49
2021/01/15 01:15:08;;;;;;;17.15;12.95;;;19.00;35.90;;;;;;5095571;28;20080;-50
2021/01/15 01:17:34;;;;;;;15.48;12.65;;;19.00;35.90;;;;;;5095560;28;20056;-49
2021/01/15 01:20:00;;;;;;;14.40;11.38;;;19.00;35.80;;;;;;5095312;28;20081;-49
2021/01/15 01:22:26;;;;;;;12.57;11.15;;;18.90;35.80;;;;;;5095660;28;20027;-50
2021/01/15 01:24:52;;;;;;;12.63;11.27;;;18.90;36.50;;;;;;5095513;28;20028;-50
2021/01/15 01:27:18;;;;;;;12.82;10.38;;;18.90;35.90;;;;;;5094263;28;20024;-50
2021/01/15 01:29:44;;;;;;;12.02;10.43;;;18.90;35.90;;;;;;5093987;28;20453;-50
2021/01/15 01:32:10;;;;;;;13.10;10.50;;;18.90;35.90;;;;;;5094577;28;20073;-50
2021/01/15 01:34:36;;;;;;;12.73;10.60;;;18.90;35.90;;;;;;5094008;28;20412;-49
2021/01/15 01:37:02;;;;;;;12.43;10.88;;;18.80;36.00;;;;;;5095118;28;20024;-50
2021/01/15 01:39:28;;;;;;;13.35;10.45;;;18.90;36.10;;;;;;5095107;28;20107;-49
2021/01/15 01:41:54;;;;;;;11.90;9.95;;;18.80;36.00;;;;;;5095277;28;20034;-50
2021/01/15 01:44:20;;;;;;;12.18;9.77;;;18.80;36.10;;;;;;5094067;28;20028;-50
2021/01/15 01:46:47;;;;;;;11.32;9.85;;;18.80;36.10;;;;;;5094750;28;20028;-50
2021/01/15 01:49:14;;;;;;;11.77;10.50;;;18.80;36.10;;;;;;5094980;28;20032;-50
2021/01/15 01:51:41;;;;;;;12.18;10.32;;;18.80;36.10;;;;;;5094920;28;20056;-50
2021/01/15 01:54:09;;;;;;;13.15;9.52;;;18.80;36.20;;;;;;5094788;28;20032;-50
2021/01/15 01:56:35;;;;;;;12.07;10.10;;;18.70;36.30;;;;;;5094964;28;20099;-50
2021/01/15 01:59:01;;;;;;;11.90;9.88;;;18.70;36.20;;;;;;5094676;28;20748;-50
2021/01/15 02:01:27;;;;;;;11.32;9.95;;;18.70;36.20;;;;;;5092857;28;20024;-50
2021/01/15 02:04:11;;;;;;;12.13;8.95;;;18.70;36.20;;;;;;5076312;28;20481;-49
2021/01/15 02:06:41;;;;;;;11.95;9.50;;;18.70;36.30;;;;;;5074484;28;20028;-49
2021/01/15 02:09:10;;;;;;;11.07;9.25;;;18.70;36.30;;;;;;5074228;28;20043;-52
2021/01/15 02:11:49;;;;;;;12.40;10.02;;;18.70;36.30;;;;;;5074357;28;20547;-50
2021/01/15 02:14:38;;;;;;;10.90;9.25;;;18.70;36.40;;;;;;5074022;28;20028;-50
2021/01/15 02:17:07;;;;;;;11.77;9.75;;;18.60;36.30;;;;;;5074182;28;20021;-50
2021/01/15 02:19:54;;;;;;;12.70;9.60;;;18.70;36.30;;;;;;5074118;28;20027;-50
2021/01/15 02:22:47;;;;;;;10.63;9.07;;;18.60;36.30;;;;;;5074342;28;20424;-50
2021/01/15 02:25:32;;;;;;;12.82;9.68;;;18.60;36.30;;;;;;5073904;28;20033;-49
2021/01/15 02:28:20;;;;;;;13.48;10.05;;;18.60;36.30;;;;;;5073985;28;20495;-49
2021/01/15 02:31:24;;;;;;;11.73;9.15;;;18.60;36.40;;;;;;5073881;28;20040;-50
2021/01/15 02:34:11;;;;;;;13.45;9.77;;;18.60;36.30;;;;;;5089730;28;20032;-50
2021/01/15 02:36:59;;;;;;;10.10;8.57;;;18.60;36.30;;;;;;5073772;28;20432;-50
2021/01/15 02:39:50;;;;;;;9.88;8.50;;;18.60;36.30;;;;;;5073743;28;20028;-51
2021/01/15 02:42:17;;;;;;;11.75;9.38;;;18.50;36.30;;;;;;5073680;28;20024;-49
2021/01/15 02:44:48;;;;;;;13.32;9.68;;;18.60;36.30;;;;;;5073716;28;20028;-50
2021/01/15 02:47:22;;;;;;;13.25;9.68;;;18.50;36.40;;;;;;5073603;28;20111;-50
2021/01/15 02:49:50;;;;;;;11.45;9.50;;;18.50;36.40;;;;;;5073450;28;20115;-51
2021/01/15 02:52:17;;;;;;;10.43;8.48;;;18.50;36.40;;;;;;5073629;28;20025;-50
2021/01/15 02:54:43;;;;;;;13.23;9.15;;;18.50;36.40;;;;;;5072080;28;20493;-50
2021/01/15 02:57:09;;;;;;;11.30;9.18;;;18.50;36.40;;;;;;5073132;28;20024;-50
2021/01/15 02:59:35;;;;;;;11.73;9.43;;;18.50;36.40;;;;;;5073455;28;20040;-50
2021/01/15 03:02:05;;;;;;;10.32;8.68;;;18.40;36.40;;;;;;5073625;28;20029;-50
2021/01/15 03:04:58;;;;;;;11.23;8.75;;;18.40;36.40;;;;;;5073691;28;20115;-50
2021/01/15 03:07:25;;;;;;;11.20;9.07;;;18.40;36.40;;;;;;5073456;28;20033;-50
2021/01/15 03:09:55;;;;;;;10.75;9.05;;;18.40;36.40;;;;;;5073515;28;20025;-50
2021/01/15 03:12:24;;;;;;;10.43;9.20;;;18.40;36.40;;;;;;5073445;28;20030;-49
2021/01/15 03:14:52;;;;;;;10.40;8.07;;;18.40;36.40;;;;;;5073402;28;20390;-51
2021/01/15 03:17:23;;;;;;;11.52;8.85;;;18.40;36.40;;;;;;5073266;28;20062;-50
2021/01/15 03:19:50;;;;;;;11.98;8.93;;;18.40;36.40;;;;;;5073357;28;20029;-50
2021/01/15 03:22:19;;;;;;;13.25;9.30;;;18.40;36.40;;;;;;5088636;28;20024;-51
2021/01/15 03:25:00;;;;;;;9.95;8.77;;;18.40;36.50;;;;;;5070907;28;20039;-50
2021/01/15 03:27:45;;;;;;;12.52;8.63;;;18.40;36.50;;;;;;5072338;28;20049;-51
2021/01/15 03:30:22;;;;;;;9.63;8.27;;;18.40;36.50;;;;;;5071687;28;20024;-51
2021/01/15 03:32:51;;;;;;;11.32;8.20;;;18.30;36.40;;;;;;5073022;28;20076;-51
2021/01/15 03:35:23;;;;;;;8.73;7.80;;;18.30;36.40;;;;;;5073046;28;20137;-51
2021/01/15 03:37:59;;;;;;;11.23;9.05;;;18.30;36.40;;;;;;5072984;28;20488;-50
2021/01/15 03:40:27;;;;;;;10.75;8.77;;;18.30;36.50;;;;;;5072870;28;20107;-51
2021/01/15 03:42:53;;;;;;;9.55;8.30;;;18.30;36.50;;;;;;5071825;28;20050;-49
2021/01/15 03:45:19;;;;;;;10.63;8.98;;;18.30;36.50;;;;;;5073026;28;20028;-50
2021/01/15 03:47:45;;;;;;;11.95;8.20;;;18.30;36.50;;;;;;5071703;28;20024;-50
2021/01/15 03:50:13;;;;;;;13.27;8.70;;;18.30;36.60;;;;;;5078195;28;20035;-50
2021/01/15 03:52:39;;;;;;;13.60;8.15;;;18.30;36.60;;;;;;5093030;28;20020;-50
2021/01/15 03:55:06;;;;;;;11.77;8.35;;;18.30;36.60;;;;;;5092917;28;20024;-50
2021/01/15 03:57:32;;;;;;;10.68;8.30;;;18.30;36.60;;;;;;5093056;28;20031;-50
2021/01/15 03:59:58;;;;;;;12.65;9.15;;;18.30;36.60;;;;;;5091678;28;20040;-49
2021/01/15 04:02:24;;;;;;;10.60;8.95;;;18.30;36.60;;;;;;5093057;28;20078;-50
2021/01/15 04:04:50;;;;;;;10.05;8.82;;;18.30;36.70;;;;;;5093037;28;20035;-50
2021/01/15 04:07:16;;;;;;;11.75;8.70;;;18.30;36.60;;;;;;5093226;28;20044;-50
2021/01/15 04:09:43;;;;;;;10.70;9.02;;;18.20;36.60;;;;;;5096985;28;20358;-50
2021/01/15 04:12:12;;;;;;;12.32;9.82;;;18.20;36.60;;;;;;5096838;28;20096;-50
2021/01/15 04:14:39;;;;;;;10.52;8.60;;;18.20;36.60;;;;;;5096877;28;20036;-50
2021/01/15 04:17:05;;;;;;;12.20;8.90;;;18.20;36.60;;;;;;5096763;28;20034;-50
2021/01/15 04:19:31;;;;;;;9.32;8.32;;;18.20;36.60;;;;;;5096488;28;20028;-50
2021/01/15 04:21:57;;;;;;;12.25;8.93;;;18.20;36.60;;;;;;5096617;28;20031;-50
2021/01/15 04:24:24;;;;;;;11.88;9.20;;;18.20;36.70;;;;;;5096898;28;20103;-50
2021/01/15 04:26:52;;;;;;;11.98;8.65;;;18.20;36.60;;;;;;5096580;28;20158;-50
2021/01/15 04:29:18;;;;;;;10.65;8.95;;;18.20;36.70;;;;;;5096655;28;20057;-49
2021/01/15 04:31:44;;;;;;;12.45;9.18;;;18.20;36.70;;;;;;5096159;28;20048;-50
2021/01/15 04:34:10;;;;;;;11.30;8.70;;;18.20;36.70;;;;;;5096466;28;20028;-50
2021/01/15 04:36:36;;;;;;;11.00;9.00;;;18.20;36.70;;;;;;5112007;28;20040;-50
2021/01/15 04:39:04;;;;;;;10.80;8.90;;;18.10;36.60;;;;;;5096412;28;20035;-50
2021/01/15 04:41:32;;;;;;;10.13;8.95;;;18.20;36.70;;;;;;5096232;28;20478;-50
2021/01/15 04:43:59;;;;;;;10.35;8.88;;;18.20;36.70;;;;;;5096223;28;20024;-50
2021/01/15 04:46:26;;;;;;;12.25;8.73;;;18.20;36.70;;;;;;5095944;28;20027;-50
2021/01/15 04:48:54;;;;;;;12.15;8.20;;;18.10;36.70;;;;;;5096083;28;20038;-50
2021/01/15 04:51:26;;;;;;;11.43;8.45;;;18.10;36.70;;;;;;5094703;28;20036;-49
2021/01/15 04:54:04;;;;;;;10.80;8.93;;;18.10;36.80;;;;;;5096094;28;20097;-50
2021/01/15 04:56:47;;;;;;;11.45;9.13;;;18.10;36.80;;;;;;5095946;28;20482;-50
2021/01/15 04:59:15;;;;;;;11.27;9.43;;;18.10;36.80;;;;;;5094653;28;20358;-50
2021/01/15 05:01:46;;;;;;;9.98;8.90;;;18.10;36.80;;;;;;5095853;28;20021;-50
2021/01/15 05:04:13;;;;;;;11.27;9.23;;;18.10;36.80;;;;;;5094729;28;20055;-50
2021/01/15 05:06:47;;;;;;;10.90;9.02;;;18.10;36.80;;;;;;5095848;28;20102;-49
2021/01/15 05:09:24;;;;;;;9.82;8.38;;;18.00;36.90;;;;;;5095711;28;20449;-49
2021/01/15 05:11:52;;;;;;;12.70;9.05;;;18.00;36.90;;;;;;5094309;28;20448;-50
2021/01/15 05:14:21;;;;;;;14.32;9.23;;;18.00;36.80;;;;;;5095805;28;20546;-50
2021/01/15 05:16:49;;;;;;;10.00;8.63;;;18.00;36.90;;;;;;5095588;28;20042;-50
2021/01/15 05:19:16;;;;;;;10.93;8.93;;;18.00;36.90;;;;;;5095205;28;20028;-50
2021/01/15 05:21:43;;;;;;;11.07;8.77;;;18.00;36.90;;;;;;5095116;28;20036;-50
2021/01/15 05:24:10;;;;;;;12.38;10.00;;;18.00;36.90;;;;;;5094619;28;20024;-50
2021/01/15 05:26:37;;;;;;;13.00;9.45;;;18.00;37.00;;;;;;5095159;28;20091;-50
2021/01/15 05:29:06;;;;;;;10.85;8.80;;;18.00;37.00;;;;;;5095278;28;20039;-50
2021/01/15 05:31:54;;;;;;;11.13;9.55;;;17.90;37.00;;;;;;5110098;28;20075;-50
2021/01/15 05:34:21;;;;;;;10.95;9.20;;;17.90;37.00;;;;;;5095343;28;20032;-49
2021/01/15 05:36:48;;;;;;;14.88;10.45;;;17.90;37.00;;;;;;5095156;28;20035;-51
2021/01/15 05:39:13;;;;;;;14.77;10.52;;;17.90;37.00;;;;;;5092939;28;20024;-51
2021/01/15 05:41:40;;;;;;;14.65;10.63;;;17.90;37.00;;;;;;5094086;28;20028;-51
2021/01/15 05:44:06;;;;;;;12.02;9.70;;;17.90;37.10;;;;;;5093900;28;20085;-51
2021/01/15 05:46:33;;;;;;;12.52;9.70;;;17.90;37.10;;;;;;5095159;28;20098;-49
2021/01/15 05:49:09;;;;;;;11.65;10.23;;;17.90;37.10;;;;;;5095092;28;20059;-50
2021/01/15 05:51:37;;;;;;;14.18;10.93;;;17.90;37.20;;;;;;5095006;28;20032;-50
2021/01/15 05:54:05;;;;;;;12.27;10.18;;;17.90;37.20;;;;;;5094751;28;20165;-50
2021/01/15 05:56:42;;;;;;;13.05;10.50;;;17.90;37.20;;;;;;5094918;28;20507;-50
2021/01/15 05:59:18;;;;;;;15.32;11.40;;;17.80;37.20;;;;;;5094914;28;20032;-50
2021/01/15 06:01:51;;;;;;;11.75;10.13;;;17.90;37.30;;;;;;5093272;28;20063;-51
2021/01/15 06:04:37;;;;;;;13.93;11.32;;;17.80;37.20;;;;;;5092865;28;20124;-50
2021/01/15 06:07:06;;;;;;;12.57;9.82;;;17.80;37.20;;;;;;5090770;28;20020;-57
2021/01/15 06:09:32;;;;;;;14.45;10.88;;;17.80;37.20;;;;;;5092907;28;20025;-57
2021/01/15 06:12:06;;;;;;;12.93;10.13;;;17.80;37.20;;;;;;5092432;28;20530;-57
2021/01/15 06:14:32;;;;;;;11.82;9.93;;;17.80;37.30;;;;;;5093672;28;20028;-57
2021/01/15 06:17:05;;;;;;;15.18;10.50;;;17.80;37.20;;;;;;5093924;28;20069;-56
2021/01/15 06:19:47;;;;;;;13.50;10.98;;;17.80;37.30;;;;;;5092210;28;20208;-57
2021/01/15 06:22:28;;;;;;;13.38;11.48;;;17.70;37.30;;;;;;5092239;28;20024;-57
2021/01/15 06:25:10;;;;;;;11.88;10.48;;;17.70;37.30;;;;;;5092992;28;20024;-57
2021/01/15 06:27:40;;;;;;;13.18;11.43;;;17.70;37.30;;;;;;5086174;28;20093;-57
2021/01/15 06:30:15;;;;;;;;;;;17.70;37.40;;;;;;5092977;28;20081;-57
2021/01/15 06:32:43;;;;;;;14.45;10.77;;;17.70;37.20;;;;;;5091411;28;20291;-57
2021/01/15 06:35:26;;;;;;;13.93;11.48;;;17.80;37.40;;;;;;5092333;28;20028;-58
2021/01/15 06:37:59;;;;;;;15.02;12.43;;;17.70;37.40;;;;;;5091425;28;20036;-57
2021/01/15 06:40:41;;;;;;;14.00;11.45;;;17.70;37.50;;;;;;5093073;28;20046;-57
2021/01/15 06:43:29;;;;;;;16.35;11.77;;;17.70;37.50;;;;;;5092937;28;20074;-56
2021/01/15 06:46:03;;;;;;;15.70;11.60;;;17.70;37.60;;;;;;5091046;28;20051;-57
2021/01/15 06:48:39;;;;;;;13.82;11.23;;;17.70;37.60;;;;;;5092740;28;20032;-56
2021/01/15 06:51:06;;;;;;;12.63;10.38;;;17.70;37.70;;;;;;5082092;28;20085;-57
2021/01/15 06:53:43;;;;;;;16.67;12.05;;;17.70;37.60;;;;;;5092790;28;20028;-56
2021/01/15 06:56:17;;;;;;;13.70;11.88;;;17.70;37.60;;;;;;5090911;28;20028;-56
2021/01/15 06:58:44;;;;;;;14.63;10.50;;;17.60;37.60;;;;;;5091335;28;20020;-57
2021/01/15 07:01:43;;;;;;;14.90;12.20;;;17.70;37.70;;;;;;5092238;28;20030;-57
2021/01/15 07:04:21;;;;;;;15.95;11.20;;;17.60;37.70;;;;;;5089343;28;20048;-56
2021/01/15 07:07:11;;;;;;;13.02;10.88;;;17.70;37.70;;;;;;5084645;28;20043;-58
2021/01/15 07:09:38;;;;;;;15.13;12.52;;;17.70;37.70;;;;;;5072134;28;20036;-57
2021/01/15 07:12:13;;;;;;;12.70;10.90;;;17.70;37.70;;;;;;5081321;28;20024;-57
2021/01/15 07:14:48;;;;;;;13.77;11.38;;;17.70;37.80;;;;;;5091193;28;20058;-57
2021/01/15 07:17:17;;;;;;;13.27;11.55;;;17.60;37.70;;;;;;5091520;28;20060;-57
2021/01/15 07:19:45;;;;;;;14.40;11.65;;;17.60;37.70;;;;;;5091903;28;20024;-57
2021/01/15 07:22:13;;;;;;;13.55;11.93;;;17.60;38.30;;;;;;5091640;28;20020;-58
2021/01/15 07:24:41;;;;;;;15.20;11.52;;;17.60;37.70;;;;;;5091721;28;20032;-57
2021/01/15 07:27:10;;;;;;;16.58;11.63;;;17.60;37.80;;;;;;5089962;28;20028;-58
2021/01/15 07:29:48;;;;;;;13.20;11.32;;;17.60;37.80;;;;;;5090450;28;20032;-62
2021/01/15 07:32:16;;;;;;;49.70;39.50;;;17.60;37.90;;;;;;5091558;28;20083;-60
2021/01/15 07:34:48;;;;;;;137.55;111.50;;;17.60;37.90;;;;;;5091627;28;20111;-59
2021/01/15 07:37:25;;;;;;;129.85;107.82;;;17.60;37.80;;;;;;5091520;28;20025;-60
2021/01/15 07:40:18;;;;;;;178.70;149.20;;;17.60;37.80;;;;;;5092011;28;20429;-58
2021/01/15 07:42:47;;;;;;;152.48;129.50;;;17.60;37.70;;;;;;5090848;28;20029;-64
2021/01/15 07:45:27;;;;;;;150.52;129.07;;;17.60;37.70;;;;;;5095728;28;20032;-63
2021/01/15 07:48:02;;;;;;;;;;;17.60;37.80;;;;;;5096429;28;20107;-56
2021/01/15 07:50:36;;;;;;;228.52;191.98;;;17.60;37.70;;;;;;5095929;28;20023;-56
2021/01/15 07:53:24;;;;;;;219.35;181.23;;;17.60;37.60;;;;;;5095915;28;20037;-56
2021/01/15 07:55:57;;;;;;;186.32;152.38;;;17.60;37.70;;;;;;5095954;28;20028;-56
2021/01/15 07:58:47;;;;;;;183.70;152.27;;;17.60;37.70;;;;;;5096173;28;20099;-56
2021/01/15 08:01:18;;;;;;;168.00;138.50;;;17.50;37.80;;;;;;5096651;28;20024;-57
2021/01/15 08:03:58;;;;;;;151.05;126.57;;;17.60;37.90;;;;;;5096875;28;20104;-57
2021/01/15 08:06:25;;;;;;;152.32;126.93;;;17.60;38.00;;;;;;5096095;28;20474;-57
2021/01/15 08:08:58;;;;;;;141.85;118.95;;;17.60;37.90;;;;;;5095833;28;20028;-57
2021/01/15 08:11:24;;;;;;;126.82;106.32;;;17.60;38.00;;;;;;5096136;28;20062;-57
2021/01/15 08:14:11;;;;;;;112.63;97.07;;;17.60;37.90;;;;;;5096334;28;20470;-57
2021/01/15 08:16:39;;;;;;;116.68;98.20;;;17.60;38.00;;;;;;5095577;28;20032;-57
2021/01/15 08:19:14;;;;;;;96.35;79.70;;;17.60;38.00;;;;;;5096045;28;20131;-57
2021/01/15 08:21:41;;;;;;;86.65;74.00;;;17.60;38.70;;;;;;5095939;28;20457;-58
2021/01/15 08:24:08;;;;;;;84.05;69.88;;;17.60;38.90;;;;;;5095829;28;20108;-57
2021/01/15 08:26:50;;;;;;;74.15;63.53;;;17.60;38.90;;;;;;5094961;28;20028;-56
2021/01/15 08:29:21;;;;;;;71.03;58.63;;;17.60;38.90;;;;;;5095275;28;20035;-56
2021/01/15 08:31:48;;;;;;;65.32;54.10;;;17.60;38.70;;;;;;5095462;28;20056;-56
2021/01/15 08:34:21;;;;;;;63.90;54.25;;;17.70;38.70;;;;;;5094035;28;20035;-57
2021/01/15 08:36:55;;;;;;;57.53;49.33;;;17.60;38.60;;;;;;5093927;28;20028;-57
2021/01/15 08:39:21;;;;;;;56.45;46.90;;;17.60;38.50;;;;;;5095495;28;20419;-55
2021/01/15 08:41:57;;;;;;;59.38;48.88;;;17.70;38.60;;;;;;5095393;28;20024;-54
2021/01/15 08:44:24;;;;;;;53.45;45.90;;;17.60;38.70;;;;;;5095315;28;20036;-54
2021/01/15 08:46:53;;;;;;;53.50;44.58;;;17.70;38.70;;;;;;5095211;28;20085;-56
2021/01/15 08:49:19;;;;;;;48.58;40.90;;;17.70;38.70;;;;;;5095868;28;20419;-55
2021/01/15 08:51:52;;;;;;;46.70;41.10;;;17.80;38.80;;;;;;5095807;28;20062;-57
2021/01/15 08:54:21;;;;;;;46.38;40.35;;;17.70;38.90;;;;;;5095449;28;20130;-56
2021/01/15 08:56:48;;;;;;;42.88;38.03;;;17.80;38.90;;;;;;5094479;28;20486;-56
2021/01/15 08:59:25;;;;;;;42.38;36.63;;;17.80;38.80;;;;;;5095775;28;20384;-56
2021/01/15 09:01:56;;;;;;;43.95;36.13;;;17.80;38.80;;;;;;5094821;28;20445;-56
2021/01/15 09:04:30;;;;;;;41.63;35.10;;;17.80;38.80;;;;;;5094754;28;20032;-56
2021/01/15 09:06:58;;;;;;;40.70;33.63;;;17.90;38.90;;;;;;5095765;28;20032;-56
2021/01/15 09:09:26;;;;;;;38.53;31.35;;;17.90;38.90;;;;;;5095810;28;20032;-56
2021/01/15 09:11:53;;;;;;;37.40;31.80;;;17.90;38.80;;;;;;5095534;28;20047;-55
2021/01/15 09:14:22;;;;;;;45.63;39.85;;;18.00;39.00;;;;;;5088891;28;20032;-56
2021/01/15 09:16:50;;;;;;;43.55;37.03;;;18.00;39.90;;;;;;5075257;28;20060;-56
2021/01/15 09:19:16;;;;;;;41.28;36.53;;;18.10;40.40;;;;;;5075140;28;20035;-55
2021/01/15 09:21:59;;;;;;;38.80;34.15;;;18.10;40.50;;;;;;5074892;28;20378;-56
2021/01/15 09:24:25;;;;;;;42.67;35.88;;;18.20;40.90;;;;;;5075098;28;20020;-56
2021/01/15 09:26:58;;;;;;;41.15;33.55;;;18.30;40.60;;;;;;5073803;28;20417;-55
2021/01/15 09:29:25;;;;;;;38.83;33.65;;;18.30;40.70;;;;;;5073925;28;20115;-54
2021/01/15 09:31:53;;;;;;;37.00;32.97;;;18.40;40.50;;;;;;5074740;28;20574;-55
2021/01/15 09:34:22;;;;;;;38.90;32.22;;;18.40;40.40;;;;;;5075084;28;20104;-55
2021/01/15 09:36:49;;;;;;;37.25;32.30;;;18.40;40.50;;;;;;5074541;28;20348;-55
2021/01/15 09:39:17;;;;;;;36.00;32.10;;;18.60;40.40;;;;;;5073780;28;20081;-56
2021/01/15 09:41:47;;;;;;;37.85;33.83;;;18.60;40.40;;;;;;5074672;28;20029;-56
2021/01/15 09:44:14;;;;;;;45.03;34.88;;;18.70;40.40;;;;;;5074900;28;20025;-56
2021/01/15 09:46:40;;;;;;;40.05;31.70;;;18.80;40.50;;;;;;5074745;28;20048;-56
2021/01/15 09:49:07;;;;;;;38.25;33.78;;;18.80;40.60;;;;;;5091916;28;20043;-55
2021/01/15 09:51:33;;;;;;;33.28;29.55;;;18.90;40.50;;;;;;5094817;28;20492;-56
2021/01/15 09:53:59;;;;;;;33.67;28.85;;;18.90;40.50;;;;;;5094859;28;20111;-56
2021/01/15 09:56:28;;;;;;;31.27;26.20;;;19.00;40.10;;;;;;5094881;28;20102;-54
2021/01/15 09:58:55;;;;;;;28.55;23.67;;;19.00;40.10;;;;;;5094911;28;20442;-54
2021/01/15 10:01:22;;;;;;;32.38;24.17;;;19.00;39.60;;;;;;5094902;28;20036;-55
2021/01/15 10:03:48;;;;;;;30.95;22.25;;;19.10;39.30;;;;;;5094789;28;20502;-54
2021/01/15 10:06:16;;;;;;;28.83;21.55;;;19.10;38.90;;;;;;5093813;28;20097;-54
2021/01/15 10:08:42;;;;;;;25.55;20.58;;;19.10;38.60;;;;;;5094838;28;20163;-55
2021/01/15 10:11:09;;;;;;;27.80;20.58;;;19.10;38.40;;;;;;5094643;28;20651;-55
2021/01/15 10:13:35;;;;;;;25.88;20.50;;;19.10;38.30;;;;;;5094617;28;20048;-55
2021/01/15 10:16:07;;;;;;;25.30;20.45;;;19.10;38.20;;;;;;5093595;28;20035;-54
2021/01/15 10:18:33;;;;;;;25.88;16.73;;;19.10;37.90;;;;;;5094424;28;20020;-53
2021/01/15 10:20:59;;;;;;;21.60;16.08;;;19.20;37.70;;;;;;5094111;28;20020;-54
2021/01/15 10:23:25;;;;;;;18.25;14.25;;;19.20;37.60;;;;;;5093128;28;20347;-55
2021/01/15 10:25:51;;;;;;;14.50;11.80;;;19.20;37.50;;;;;;5094145;28;20071;-54
2021/01/15 10:28:17;;;;;;;15.25;10.95;;;19.20;37.30;;;;;;5093924;28;20028;-54
2021/01/15 10:30:47;;;;;;;19.02;10.63;;;19.20;37.00;;;;;;5093892;28;20031;-54
2021/01/15 10:33:14;;;;;;;15.07;10.68;;;19.20;36.70;;;;;;5093281;28;20161;-55
2021/01/15 10:35:40;;;;;;;16.65;10.73;;;19.30;36.70;;;;;;5093479;28;20028;-54
2021/01/15 10:38:06;;;;;;;12.70;9.27;;;19.30;36.50;;;;;;5093328;28;20029;-54
2021/01/15 10:40:33;;;;;;;13.50;8.80;;;19.30;36.40;;;;;;5093448;28;20028;-54
2021/01/15 10:42:59;;;;;;;14.35;10.82;;;19.30;36.10;;;;;;5092438;28;20024;-55
2021/01/15 10:45:25;;;;;;;11.63;9.50;;;19.30;35.60;;;;;;5092894;28;20541;-55
2021/01/15 10:47:51;;;;;;;12.48;8.68;;;19.30;35.90;;;;;;5093613;28;20035;-54
2021/01/15 10:50:17;;;;;;;11.82;9.27;;;19.40;35.80;;;;;;5093806;28;20390;-53
2021/01/15 10:52:53;;;;;;;11.50;8.77;;;19.40;35.40;;;;;;5093705;28;20089;-53
2021/01/15 10:55:20;;;;;;;13.88;8.90;;;19.40;35.40;;;;;;5092328;28;20032;-54
2021/01/15 10:57:46;;;;;;;9.90;7.90;;;19.50;35.60;;;;;;5093789;28;20070;-53
2021/01/15 11:00:14;;;;;;;14.60;8.73;;;19.60;35.60;;;;;;5093724;28;20028;-54
2021/01/15 11:02:40;;;;;;;14.35;9.32;;;19.70;35.40;;;;;;5091982;28;20028;-55
2021/01/15 11:05:07;;;;;;;11.73;9.05;;;19.80;35.20;;;;;;5093464;28;20057;-55
2021/01/15 11:07:34;;;;;;;13.35;8.18;;;20.00;35.00;;;;;;5080385;28;20028;-53
2021/01/15 11:10:00;;;;;;;20.40;15.73;;;20.00;35.00;;;;;;5072473;28;20028;-61
2021/01/15 11:12:26;;;;;;;43.45;34.70;;;20.10;34.70;;;;;;5090109;28;20095;-58
2021/01/15 11:14:52;;;;;;;37.30;30.10;;;20.30;34.70;;;;;;5091762;28;20127;-57
2021/01/15 11:17:18;;;;;;;22.40;17.55;;;20.40;34.60;;;;;;5092265;28;20036;-57
2021/01/15 11:19:44;;;;;;;15.00;12.57;;;20.60;34.50;;;;;;5092357;28;20329;-58
2021/01/15 11:22:10;;;;;;;14.82;11.30;;;20.70;34.10;;;;;;5091140;28;20359;-57
2021/01/15 11:24:36;;;;;;;12.82;10.05;;;20.90;34.20;;;;;;5092237;28;20098;-57
2021/01/15 11:27:03;;;;;;;10.73;9.55;;;21.10;34.20;;;;;;5090772;28;20039;-56
2021/01/15 11:29:28;;;;;;;12.98;8.90;;;21.40;33.90;;;;;;5092122;28;20077;-57
2021/01/15 11:31:54;;;;;;;10.20;8.25;;;21.70;33.80;;;;;;5090742;28;20052;-57
2021/01/15 11:34:22;;;;;;;12.20;8.18;;;22.00;33.30;;;;;;5092190;28;20033;-57
2021/01/15 11:36:49;;;;;;;11.40;8.38;;;22.30;33.20;;;;;;5092014;28;20067;-57
2021/01/15 11:39:15;;;;;;;13.45;10.15;;;22.60;32.80;;;;;;5091900;28;20475;-60
2021/01/15 11:41:42;;;;;;;34.45;30.80;;;23.00;32.50;;;;;;5090543;28;20081;-56
2021/01/15 11:44:11;;;;;;;20.52;18.33;;;23.30;31.80;;;;;;5091909;28;20024;-55
2021/01/15 11:46:38;;;;;;;21.98;19.48;;;23.60;30.90;;;;;;5091811;28;20119;-55
2021/01/15 11:49:04;;;;;;;20.10;16.05;;;23.90;31.30;;;;;;5090574;28;20443;-55
2021/01/15 11:51:30;;;;;;;16.17;14.52;;;24.20;31.00;;;;;;5091816;28;20020;-56
2021/01/15 11:53:56;;;;;;;17.40;13.70;;;24.40;31.30;;;;;;5091851;28;20466;-56
2021/01/15 11:56:23;;;;;;;15.38;13.75;;;24.70;30.50;;;;;;5073526;28;20039;-55
2021/01/15 11:58:49;;;;;;;12.50;11.25;;;24.90;30.70;;;;;;5091700;28;20024;-55
2021/01/15 12:01:15;;;;;;;13.15;11.75;;;25.10;29.90;;;;;;5091142;28;20500;-55
2021/01/15 12:03:41;;;;;;;10.95;9.80;;;25.30;29.60;;;;;;5090703;28;20427;-56
2021/01/15 12:06:08;;;;;;;10.55;9.45;;;25.50;29.50;;;;;;5091680;28;20027;-56
2021/01/15 12:08:34;;;;;;;9.02;8.05;;;25.70;29.30;;;;;;5091920;28;20354;-56
2021/01/15 12:11:05;;;;;;;9.38;8.18;;;25.90;29.10;;;;;;5091593;28;20038;-56
2021/01/15 12:13:31;;;;;;;9.48;8.02;;;26.00;28.60;;;;;;5106954;28;20036;-55
2021/01/15 12:15:58;;;;;;;8.15;7.07;;;26.20;28.60;;;;;;5091198;28;20075;-56
2021/01/15 12:18:24;;;;;;;8.02;7.05;;;26.30;28.40;;;;;;5107105;28;20036;-56
2021/01/15 12:20:51;;;;;;;9.50;7.22;;;26.30;28.30;;;;;;5091554;28;20411;-55
2021/01/15 12:23:19;;;;;;;8.93;6.50;;;26.50;28.30;;;;;;5090898;28;20378;-57
2021/01/15 12:25:45;;;;;;;9.65;6.57;;;26.60;28.10;;;;;;5091525;28;20024;-56
2021/01/15 12:28:14;;;;;;;24.90;22.33;;;26.70;28.50;;;;;;5090389;28;20032;-56
2021/01/15 12:30:40;;;;;;;14.07;12.60;;;26.70;27.80;;;;;;5095322;28;20427;-55
2021/01/15 12:33:13;;;;;;;16.45;11.15;;;26.70;27.70;;;;;;5094125;28;20044;-55
2021/01/15 12:35:41;;;;;;;17.45;9.98;;;26.80;27.50;;;;;;5095375;28;20106;-55
2021/01/15 12:38:12;;;;;;;7.43;6.25;;;26.90;27.80;;;;;;5095239;28;20043;-55
2021/01/15 12:40:38;;;;;;;8.75;6.88;;;26.80;27.20;;;;;;5095612;28;20055;-55
2021/01/15 12:43:05;;;;;;;8.85;6.55;;;26.90;27.40;;;;;;5095481;28;20028;-55
2021/01/15 12:45:36;;;;;;;7.78;5.63;;;26.90;27.50;;;;;;5095327;28;20036;-54